Time;durP1;ratioP1;P1;durP2;ratioP2;P2;SDS_P1;SDS_P2;PMS_P1;PMS_P2;Temp;Humidity;BMP_temperature;BMP_pressure;BME280_temperature;BME280_humidity;BME280_pressure;Samples;Min_cycle;Max_cycle;Signal;HPM_P1;HPM_P2
2023/06/24 00:02:12;;;;;;;8.23;4.77;;;;;;;15.78;82.85;101667.69;5008800;28;20214;-81
2023/06/24 00:04:39;;;;;;;7.13;4.83;;;;;;;15.74;83.63;101669.75;5005869;28;20659;-82
2023/06/24 00:07:06;;;;;;;6.90;4.47;;;;;;;15.72;84.00;101666.31;5010175;28;20234;-81
2023/06/24 00:09:33;;;;;;;8.73;4.67;;;;;;;15.68;83.90;101659.44;5003771;28;20230;-81
2023/06/24 00:12:00;;;;;;;11.93;4.43;;;;;;;15.61;84.15;101658.13;5001702;28;20750;-81
2023/06/24 00:14:28;;;;;;;9.10;4.93;;;;;;;15.55;84.34;101650.47;5007973;28;20213;-81
2023/06/24 00:16:56;;;;;;;9.30;4.60;;;;;;;15.48;84.88;101654.53;5004961;28;20940;-81
2023/06/24 00:19:24;;;;;;;9.73;4.40;;;;;;;15.44;84.89;101653.00;5003815;28;20236;-82
2023/06/24 00:21:51;;;;;;;10.03;4.20;;;;;;;15.38;85.22;101651.59;5012417;28;20219;-82
2023/06/24 00:24:19;;;;;;;8.40;4.00;;;;;;;15.34;85.58;101663.50;5003174;28;20217;-81
2023/06/24 00:26:46;;;;;;;8.57;4.00;;;;;;;15.28;86.04;101659.41;5008407;28;20721;-82
2023/06/24 00:29:13;;;;;;;7.10;4.07;;;;;;;15.25;86.37;101659.59;5005358;28;20311;-82
2023/06/24 00:31:41;;;;;;;7.83;3.70;;;;;;;15.20;86.42;101655.53;5002406;28;20212;-81
2023/06/24 00:34:08;;;;;;;6.93;4.13;;;;;;;15.16;86.96;101664.75;5001470;28;20289;-81
2023/06/24 00:36:35;;;;;;;6.70;4.20;;;;;;;15.14;87.29;101670.19;4999619;28;20280;-82
2023/06/24 00:39:03;;;;;;;8.03;4.77;;;;;;;15.11;87.52;101667.72;5006209;28;20234;-82
2023/06/24 00:41:30;;;;;;;5.30;4.47;;;;;;;15.08;88.22;101670.59;5003169;28;20268;-81
2023/06/24 00:43:57;;;;;;;7.57;4.63;;;;;;;15.05;88.63;101665.44;5006526;28;20216;-81
2023/06/24 00:46:26;;;;;;;5.83;4.00;;;;;;;15.03;88.90;101664.69;5008421;28;20206;-82
2023/06/24 00:48:55;;;;;;;9.97;4.40;;;;;;;14.99;89.10;101673.91;5010719;28;20228;-82
2023/06/24 00:51:26;;;;;;;5.13;4.47;;;;;;;14.96;89.53;101675.91;5005386;28;20201;-81
2023/06/24 00:53:52;;;;;;;5.13;4.70;;;;;;;14.92;89.70;101673.44;4999566;28;20742;-81
2023/06/24 00:56:22;;;;;;;6.40;4.27;;;;;;;14.90;90.04;101669.97;5004393;28;20209;-81
2023/06/24 00:58:50;;;;;;;5.57;3.10;;;;;;;14.83;89.06;101668.69;5008914;28;20205;-82
2023/06/24 01:01:17;;;;;;;6.37;3.80;;;;;;;14.75;88.83;101670.13;5000092;28;20223;-81
2023/06/24 01:03:43;;;;;;;9.37;3.83;;;;;;;14.66;89.21;101670.72;5008949;28;20714;-81
2023/06/24 01:06:12;;;;;;;5.73;3.40;;;;;;;14.60;89.20;101669.28;5008862;28;20218;-80
2023/06/24 01:08:39;;;;;;;5.77;3.60;;;;;;;14.52;88.82;101675.13;5007226;28;20609;-81
2023/06/24 01:11:06;;;;;;;8.40;3.60;;;;;;;14.44;89.47;101677.44;5006727;28;20232;-81
2023/06/24 01:13:32;;;;;;;5.30;3.40;;;;;;;14.38;89.46;101684.97;5008223;28;20195;-81
2023/06/24 01:16:05;;;;;;;8.23;3.83;;;;;;;14.30;88.99;101679.25;5004316;28;20625;-81
2023/06/24 01:18:38;;;;;;;7.80;3.80;;;;;;;14.22;89.87;101679.72;5007659;28;20203;-81
2023/06/24 01:21:11;;;;;;;4.67;3.73;;;;;;;14.16;90.26;101677.41;5001646;28;20237;-81
2023/06/24 01:24:04;;;;;;;5.87;3.80;;;;;;;14.13;91.15;101688.34;5009941;28;20688;-79
2023/06/24 01:26:55;;;;;;;7.87;3.73;;;;;;;14.10;91.94;101694.75;5002312;28;20215;-81
2023/06/24 01:29:50;;;;;;;5.10;4.23;;;;;;;14.09;92.34;101690.34;5007617;28;20227;-80
2023/06/24 01:32:28;;;;;;;7.83;4.53;;;;;;;14.08;92.71;101693.97;5007437;28;20216;-81
2023/06/24 01:34:58;;;;;;;6.17;4.23;;;;;;;14.05;92.99;101695.97;5010214;28;20234;-81
2023/06/24 01:37:29;;;;;;;9.70;4.33;;;;;;;14.01;93.07;101694.44;5005688;28;20600;-81
2023/06/24 01:40:06;;;;;;;5.47;4.00;;;;;;;13.99;93.27;101701.69;5008457;28;20239;-81
2023/06/24 01:42:36;;;;;;;5.47;4.60;;;;;;;13.97;93.40;101693.78;5006110;28;20208;-81
2023/06/24 01:45:03;;;;;;;6.13;4.97;;;;;;;13.95;94.08;101687.66;5008201;28;20216;-80
2023/06/24 01:47:32;;;;;;;6.00;4.90;;;;;;;13.93;94.26;101686.00;5002887;28;20206;-81
2023/06/24 01:50:02;;;;;;;10.17;4.63;;;;;;;13.93;94.34;101694.03;5008200;28;20619;-81
2023/06/24 01:52:30;;;;;;;5.57;4.57;;;;;;;13.90;94.99;101692.41;5008568;28;20712;-82
2023/06/24 01:54:59;;;;;;;7.00;4.40;;;;;;;13.87;94.89;101688.09;5003083;28;20211;-81
2023/06/24 01:57:28;;;;;;;7.10;4.33;;;;;;;13.85;94.76;101694.50;5004423;28;20206;-82
2023/06/24 01:59:56;;;;;;;5.70;4.33;;;;;;;13.81;94.44;101691.13;5002171;28;20234;-80
2023/06/24 02:02:26;;;;;;;5.23;4.27;;;;;;;13.77;94.85;101697.66;5005966;28;20214;-80
2023/06/24 02:04:55;;;;;;;6.40;4.43;;;;;;;13.73;94.69;101696.09;5009887;28;20671;-81
2023/06/24 02:07:23;;;;;;;6.57;4.37;;;;;;;13.72;95.48;101694.38;5005295;28;20255;-81
2023/06/24 02:09:52;;;;;;;7.47;4.23;;;;;;;13.69;95.76;101694.56;5011844;28;20227;-81
2023/06/24 02:12:19;;;;;;;6.83;4.33;;;;;;;13.66;95.37;101699.22;5011331;28;20207;-81
2023/06/24 02:14:46;;;;;;;4.97;4.30;;;;;;;13.59;94.81;101696.06;5003554;28;20208;-81
2023/06/24 02:17:14;;;;;;;7.33;4.70;;;;;;;13.54;94.68;101698.16;5006335;28;20216;-80
2023/06/24 02:19:43;;;;;;;6.07;3.90;;;;;;;13.48;95.21;101702.03;5003480;28;20223;-80
2023/06/24 02:22:11;;;;;;;5.80;4.07;;;;;;;13.45;95.54;101696.00;5006362;28;20207;-81
2023/06/24 02:24:39;;;;;;;8.67;5.10;;;;;;;13.42;95.79;101689.03;5005679;28;20207;-82
2023/06/24 02:27:07;;;;;;;4.93;4.23;;;;;;;13.42;96.56;101686.38;5003170;28;20298;-82
2023/06/24 02:29:36;;;;;;;6.37;5.20;;;;;;;13.41;96.39;101689.13;5006518;28;20708;-81
2023/06/24 02:32:03;;;;;;;8.93;5.40;;;;;;;13.36;96.86;101684.03;5011001;28;20238;-82
2023/06/24 02:34:30;;;;;;;7.10;5.83;;;;;;;13.36;97.38;101688.53;5004344;28;20203;-81
2023/06/24 02:36:56;;;;;;;6.53;4.90;;;;;;;13.35;97.61;101684.13;5003419;28;20211;-81
2023/06/24 02:39:24;;;;;;;7.27;5.30;;;;;;;13.35;97.90;101684.13;5002623;28;20594;-81
2023/06/24 02:41:51;;;;;;;5.30;4.80;;;;;;;13.33;98.22;101681.53;5003484;28;20208;-82
2023/06/24 02:44:17;;;;;;;7.60;5.60;;;;;;;13.32;98.43;101677.13;5008165;28;20551;-82
2023/06/24 02:46:45;;;;;;;8.03;5.07;;;;;;;13.31;98.30;101679.91;5008810;28;20214;-82
2023/06/24 02:49:14;;;;;;;5.20;4.80;;;;;;;13.28;98.48;101688.09;5001371;28;20223;-82
2023/06/24 02:51:41;;;;;;;5.83;4.80;;;;;;;13.25;98.51;101689.16;5003289;28;20203;-82
2023/06/24 02:54:07;;;;;;;7.77;4.90;;;;;;;13.23;98.27;101683.03;5001038;28;20653;-81
2023/06/24 02:56:41;;;;;;;7.00;4.67;;;;;;;13.19;98.37;101692.19;5003172;28;20210;-81
2023/06/24 02:59:09;;;;;;;7.60;5.10;;;;;;;13.17;98.51;101688.72;4999361;28;20220;-81
2023/06/24 03:01:38;;;;;;;8.20;5.40;;;;;;;13.14;99.16;101687.06;5009291;28;20237;-82
2023/06/24 03:04:05;;;;;;;5.67;4.63;;;;;;;13.11;99.32;101689.91;5005596;28;20207;-82
2023/06/24 03:06:33;;;;;;;7.43;4.87;;;;;;;13.10;99.14;101698.88;5004547;28;20214;-81
2023/06/24 03:08:59;;;;;;;8.07;4.77;;;;;;;13.08;99.22;101697.22;5008769;28;20231;-80
2023/06/24 03:11:27;;;;;;;5.43;4.30;;;;;;;13.05;99.42;101702.78;5005444;28;20207;-80
2023/06/24 03:13:55;;;;;;;5.70;4.80;;;;;;;13.03;99.71;101700.19;5003280;28;20210;-81
2023/06/24 03:16:22;;;;;;;6.93;4.67;;;;;;;13.01;99.51;101707.44;5007099;28;20209;-82
2023/06/24 03:18:48;;;;;;;8.03;5.23;;;;;;;12.98;99.62;101702.25;5008988;28;20787;-81
2023/06/24 03:21:15;;;;;;;7.37;4.80;;;;;;;12.96;99.93;101705.97;5009491;28;20203;-81
2023/06/24 03:23:41;;;;;;;5.50;4.70;;;;;;;12.91;99.66;101703.53;5004838;28;20576;-81
2023/06/24 03:26:08;;;;;;;7.07;5.00;;;;;;;12.90;100.00;101701.81;5008999;28;20644;-82
2023/06/24 03:28:34;;;;;;;5.70;4.87;;;;;;;12.89;100.00;101701.94;5007436;28;20222;-81
2023/06/24 03:31:02;;;;;;;5.57;4.70;;;;;;;12.88;100.00;101711.75;5008440;28;20223;-81
2023/06/24 03:33:29;;;;;;;12.30;5.37;;;;;;;12.88;100.00;101710.91;5002579;28;20218;-81
2023/06/24 03:35:55;;;;;;;6.90;5.33;;;;;;;12.88;100.00;101713.56;5004766;28;20594;-81
2023/06/24 03:38:22;;;;;;;9.97;5.50;;;;;;;12.88;100.00;101718.91;5006921;28;20302;-81
2023/06/24 03:40:48;;;;;;;9.57;5.63;;;;;;;12.87;100.00;101723.41;5006018;28;20609;-81
2023/06/24 03:43:15;;;;;;;7.93;5.00;;;;;;;12.85;100.00;101722.63;5002696;28;20238;-82
2023/06/24 03:45:41;;;;;;;7.77;5.17;;;;;;;12.83;100.00;101721.84;5000993;28;20249;-81
2023/06/24 03:48:09;;;;;;;8.07;5.53;;;;;;;12.82;100.00;101718.31;5007204;28;20210;-81
2023/06/24 03:50:36;;;;;;;6.83;4.60;;;;;;;12.82;100.00;101717.44;5004728;28;20227;-81
2023/06/24 03:53:03;;;;;;;6.37;4.90;;;;;;;12.80;100.00;101712.19;5007328;28;20783;-81
2023/06/24 03:55:29;;;;;;;6.90;5.10;;;;;;;12.81;100.00;101716.56;4998952;28;20807;-81
2023/06/24 03:57:56;;;;;;;7.43;5.17;;;;;;;12.82;100.00;101712.09;5007665;28;20222;-81
2023/06/24 04:00:23;;;;;;;5.60;4.30;;;;;;;12.80;100.00;101722.00;5005250;28;20582;-80
2023/06/24 04:02:49;;;;;;;11.03;5.50;;;;;;;12.78;100.00;101726.56;5006191;28;20208;-80
2023/06/24 04:05:17;;;;;;;7.40;4.77;;;;;;;12.76;100.00;101732.00;5002598;28;20223;-80
2023/06/24 04:07:46;;;;;;;7.57;5.17;;;;;;;12.76;100.00;101729.31;5008549;28;20572;-81
2023/06/24 04:10:13;;;;;;;7.77;4.63;;;;;;;12.72;100.00;101721.59;5007011;28;20230;-82
2023/06/24 04:12:39;;;;;;;6.53;4.90;;;;;;;12.72;100.00;101722.41;5001307;28;20207;-82
2023/06/24 04:15:07;;;;;;;8.53;4.97;;;;;;;12.71;100.00;101709.16;5003416;28;20222;-81
2023/06/24 04:17:33;;;;;;;8.87;5.40;;;;;;;12.76;100.00;101715.09;5001696;28;20214;-81
2023/06/24 04:20:02;;;;;;;7.97;5.33;;;;;;;12.78;100.00;101715.88;5011556;28;20219;-81
2023/06/24 04:22:29;;;;;;;8.30;5.60;;;;;;;12.81;100.00;101721.94;5011599;28;20742;-81
2023/06/24 04:24:56;;;;;;;8.23;5.60;;;;;;;12.83;100.00;101714.69;5011065;28;20305;-81
2023/06/24 04:27:22;;;;;;;9.43;5.50;;;;;;;12.86;100.00;101719.00;5003346;28;20220;-80
2023/06/24 04:29:49;;;;;;;6.13;5.53;;;;;;;12.89;100.00;101726.84;5008027;28;20240;-82
2023/06/24 04:32:15;;;;;;;10.20;6.13;;;;;;;12.88;100.00;101722.47;5005559;28;20218;-82
2023/06/24 04:34:42;;;;;;;10.37;6.40;;;;;;;12.91;100.00;101726.75;5011654;28;20210;-81
2023/06/24 04:37:08;;;;;;;11.83;6.70;;;;;;;12.93;100.00;101716.81;5008171;28;20449;-81
2023/06/24 04:39:36;;;;;;;7.57;6.30;;;;;;;12.95;100.00;101725.63;5011544;28;20234;-81
2023/06/24 04:42:03;;;;;;;10.00;6.50;;;;;;;12.96;100.00;101725.53;5005283;28;20207;-82
2023/06/24 04:44:29;;;;;;;10.10;6.37;;;;;;;12.99;100.00;101736.06;5009834;28;20223;-81
2023/06/24 04:46:56;;;;;;;10.17;6.50;;;;;;;13.03;100.00;101734.97;5012910;28;20207;-81
2023/06/24 04:49:22;;;;;;;8.93;6.00;;;;;;;13.05;100.00;101729.53;5010085;28;20318;-82
2023/06/24 04:51:49;;;;;;;12.03;6.77;;;;;;;13.08;100.00;101734.69;5008287;28;20723;-82
2023/06/24 04:54:15;;;;;;;13.00;7.00;;;;;;;13.11;100.00;101727.34;5008694;28;20207;-82
2023/06/24 04:56:45;;;;;;;10.30;6.80;;;;;;;13.15;100.00;101731.63;5012304;28;20207;-81
2023/06/24 04:59:11;;;;;;;11.30;7.17;;;;;;;13.19;100.00;101735.84;5008027;28;20677;-81
2023/06/24 05:01:38;;;;;;;13.07;7.20;;;;;;;13.24;100.00;101729.38;5011379;28;20211;-81
2023/06/24 05:04:04;;;;;;;11.20;7.17;;;;;;;13.31;100.00;101734.28;5005869;28;20209;-81
2023/06/24 05:06:31;;;;;;;12.33;6.93;;;;;;;13.37;100.00;101733.06;5006395;28;20211;-81
2023/06/24 05:08:57;;;;;;;10.40;7.03;;;;;;;13.45;100.00;101738.81;5006018;28;20614;-81
2023/06/24 05:11:24;;;;;;;10.27;6.83;;;;;;;13.50;100.00;101734.06;5002225;28;20203;-80
2023/06/24 05:13:52;;;;;;;11.70;7.63;;;;;;;13.59;100.00;101746.94;5010276;28;20203;-81
2023/06/24 05:16:18;;;;;;;11.63;7.20;;;;;;;13.67;100.00;101741.09;5008359;28;20213;-81
2023/06/24 05:18:45;;;;;;;12.77;7.33;;;;;;;13.77;100.00;101745.84;5005374;28;20210;-81
2023/06/24 05:21:11;;;;;;;14.83;8.03;;;;;;;13.86;100.00;101750.66;5011717;28;20203;-81
2023/06/24 05:23:38;;;;;;;10.67;8.07;;;;;;;13.98;100.00;101749.03;5001565;28;20218;-82
2023/06/24 05:26:04;;;;;;;13.53;7.43;;;;;;;14.07;100.00;101758.34;5010228;28;20217;-82
2023/06/24 05:28:31;;;;;;;11.07;7.67;;;;;;;14.18;100.00;101750.50;4998455;28;20201;-82
2023/06/24 05:30:59;;;;;;;12.33;8.20;;;;;;;14.29;100.00;101750.75;5004858;28;20227;-83
2023/06/24 05:33:25;;;;;;;12.10;7.70;;;;;;;14.41;100.00;101757.19;5002004;28;20579;-83
2023/06/24 05:35:52;;;;;;;10.87;7.67;;;;;;;14.51;100.00;101750.31;5008937;28;20688;-83
2023/06/24 05:38:18;;;;;;;11.30;6.73;;;;;;;14.61;100.00;101750.59;5003590;28;20206;-82
2023/06/24 05:40:45;;;;;;;10.67;7.37;;;;;;;14.73;100.00;101756.03;4998135;28;20235;-82
2023/06/24 05:43:11;;;;;;;9.23;7.30;;;;;;;14.87;100.00;101755.16;5009792;28;20215;-82
2023/06/24 05:45:38;;;;;;;11.77;6.53;;;;;;;14.99;100.00;101759.75;5001667;28;20255;-82
2023/06/24 05:48:06;;;;;;;8.63;5.50;;;;;;;15.14;100.00;101752.53;5006984;28;20215;-82
2023/06/24 05:50:32;;;;;;;6.47;5.83;;;;;;;15.24;100.00;101759.00;5008341;28;20241;-81
2023/06/24 05:52:59;;;;;;;7.77;5.27;;;;;;;15.35;100.00;101756.50;5008589;28;20802;-83
2023/06/24 05:55:25;;;;;;;7.63;6.27;;;;;;;15.47;100.00;101757.50;5006961;28;20206;-81
2023/06/24 05:57:52;;;;;;;8.20;5.40;;;;;;;15.61;100.00;101752.09;5010797;28;20216;-82
2023/06/24 06:00:19;;;;;;;6.57;5.30;;;;;;;15.78;100.00;101754.50;5007556;28;20225;-82
2023/06/24 06:02:46;;;;;;;10.43;5.60;;;;;;;15.95;100.00;101751.53;5007817;28;20224;-81
2023/06/24 06:05:14;;;;;;;7.47;5.30;;;;;;;16.13;100.00;101759.28;5005981;28;20265;-82
2023/06/24 06:07:40;;;;;;;8.83;5.43;;;;;;;16.29;98.86;101752.78;5008644;28;20593;-82
2023/06/24 06:10:08;;;;;;;5.40;4.90;;;;;;;16.45;96.91;101744.50;5010389;28;20233;-83
2023/06/24 06:12:35;;;;;;;7.20;5.13;;;;;;;16.66;96.67;101750.19;5006361;28;20207;-84
2023/06/24 06:15:01;;;;;;;6.53;4.80;;;;;;;16.90;95.54;101747.56;5003053;28;20207;-82
2023/06/24 06:17:28;;;;;;;6.00;4.87;;;;;;;17.09;93.00;101749.78;5007945;28;20211;-82
2023/06/24 06:19:54;;;;;;;6.70;4.70;;;;;;;17.28;91.05;101748.31;5009832;28;20224;-83
2023/06/24 06:22:22;;;;;;;7.70;5.00;;;;;;;17.48;89.12;101748.66;5004790;28;20206;-82
2023/06/24 06:24:48;;;;;;;7.13;4.53;;;;;;;17.65;86.51;101743.75;5008753;28;20227;-84
2023/06/24 06:27:20;;;;;;;8.37;5.30;;;;;;;17.81;85.37;101753.38;5003268;28;20210;-83
2023/06/24 06:29:46;;;;;;;5.23;4.43;;;;;;;17.97;84.37;101752.09;5005850;28;20235;-82
2023/06/24 06:32:13;;;;;;;5.77;4.70;;;;;;;18.15;82.97;101748.94;5002277;28;20214;-83
2023/06/24 06:34:39;;;;;;;8.03;5.03;;;;;;;18.34;81.83;101746.53;4998143;28;20209;-82
2023/06/24 06:37:09;;;;;;;6.53;4.77;;;;;;;18.51;80.32;101748.75;5003379;28;20208;-83
2023/06/24 06:39:36;;;;;;;6.73;4.90;;;;;;;18.67;78.26;101748.41;5003723;28;20233;-82
2023/06/24 06:42:03;;;;;;;5.67;5.07;;;;;;;18.79;77.29;101746.59;5000130;28;20224;-82
2023/06/24 06:44:30;;;;;;;6.37;5.10;;;;;;;18.95;77.03;101752.47;4998173;28;20220;-81
2023/06/24 06:46:56;;;;;;;5.80;4.47;;;;;;;19.12;74.81;101743.84;5002766;28;20214;-82
2023/06/24 06:49:23;;;;;;;6.20;4.70;;;;;;;19.23;74.99;101743.81;5002013;28;20707;-81
2023/06/24 06:51:49;;;;;;;6.10;4.50;;;;;;;19.35;73.52;101740.09;5006639;28;20209;-82
2023/06/24 06:54:16;;;;;;;7.10;4.43;;;;;;;19.47;72.82;101740.94;4997251;28;20214;-82
2023/06/24 06:56:44;;;;;;;7.50;4.40;;;;;;;19.61;71.23;101734.41;5003326;28;20637;-82
2023/06/24 06:59:11;;;;;;;6.33;4.43;;;;;;;19.68;70.33;101736.47;5009958;28;20238;-82
2023/06/24 07:01:37;;;;;;;6.13;4.23;;;;;;;19.76;69.81;101730.38;5007691;28;20199;-81
2023/06/24 07:04:06;;;;;;;4.97;4.17;;;;;;;19.88;69.45;101736.63;5000083;28;20210;-81
2023/06/24 07:06:33;;;;;;;4.00;3.60;;;;;;;20.02;68.86;101744.41;5000430;28;20211;-82
2023/06/24 07:09:00;;;;;;;7.00;4.13;;;;;;;20.13;67.07;101735.34;5002991;28;20226;-82
2023/06/24 07:11:28;;;;;;;5.38;4.30;;;;;;;20.24;66.41;101744.28;5001647;28;20207;-82
2023/06/24 07:13:55;;;;;;;5.18;3.80;;;;;;;20.31;65.38;101740.03;5011853;28;20296;-83
2023/06/24 07:16:22;;;;;;;3.90;3.50;;;;;;;20.41;65.14;101740.13;5006334;28;20203;-83
2023/06/24 07:18:48;;;;;;;6.65;3.92;;;;;;;20.54;64.99;101729.06;5010613;28;20665;-83
2023/06/24 07:21:15;;;;;;;5.40;3.88;;;;;;;20.68;63.64;101734.97;4993903;28;20709;-83
2023/06/24 07:23:42;;;;;;;4.90;3.47;;;;;;;20.82;61.80;101724.75;5007606;28;20211;-83
2023/06/24 07:26:09;;;;;;;5.82;3.47;;;;;;;20.88;61.33;101729.63;5004835;28;20211;-83
2023/06/24 07:28:35;;;;;;;4.18;3.47;;;;;;;21.00;61.27;101731.22;5001060;28;20207;-82
2023/06/24 07:31:03;;;;;;;4.00;3.00;;;;;;;21.12;60.79;101736.41;5003570;28;20653;-82
2023/06/24 07:33:30;;;;;;;4.72;3.70;;;;;;;21.25;59.99;101736.19;5005442;28;20203;-83
2023/06/24 07:35:57;;;;;;;3.40;3.10;;;;;;;21.34;58.07;101729.91;5004711;28;20209;-83
2023/06/24 07:38:23;;;;;;;3.47;2.90;;;;;;;21.44;58.15;101733.50;5007916;28;20202;-84
2023/06/24 07:40:50;;;;;;;3.33;3.00;;;;;;;21.56;57.50;101727.94;5009422;28;20229;-81
2023/06/24 07:43:16;;;;;;;3.60;2.75;;;;;;;21.69;56.62;101732.06;5002755;28;20218;-82
2023/06/24 07:45:44;;;;;;;3.83;3.42;;;;;;;21.82;55.31;101739.94;4994865;28;20214;-81
2023/06/24 07:48:12;;;;;;;3.42;3.13;;;;;;;21.98;55.93;101742.06;5005333;28;20691;-81
2023/06/24 07:50:39;;;;;;;3.67;2.88;;;;;;;22.16;55.69;101754.75;5010947;28;20233;-81
2023/06/24 07:53:05;;;;;;;4.05;2.70;;;;;;;22.25;52.10;101755.72;5009709;28;20207;-80
2023/06/24 07:55:32;;;;;;;2.83;2.50;;;;;;;22.29;51.85;101754.44;5008612;28;20285;-81
2023/06/24 07:57:59;;;;;;;3.00;2.67;;;;;;;22.38;51.93;101761.72;5014954;28;20217;-81
2023/06/24 08:00:25;;;;;;;3.65;3.30;;;;;;;22.48;52.12;101759.81;5005539;28;20294;-81
2023/06/24 08:02:53;;;;;;;3.08;2.72;;;;;;;22.59;52.29;101760.63;5008285;28;20223;-80
2023/06/24 08:05:21;;;;;;;2.67;2.40;;;;;;;22.73;52.00;101757.47;5011020;28;20276;-80
2023/06/24 08:07:47;;;;;;;3.28;2.95;;;;;;;22.82;51.87;101756.59;5000541;28;20720;-80
2023/06/24 08:10:14;;;;;;;4.03;2.70;;;;;;;22.94;51.12;101749.94;5006879;28;20733;-79
2023/06/24 08:12:40;;;;;;;3.45;3.10;;;;;;;23.02;50.46;101747.34;5013334;28;20203;-80
2023/06/24 08:15:08;;;;;;;3.17;2.50;;;;;;;23.09;49.20;101747.59;5014519;28;20203;-80
2023/06/24 08:17:34;;;;;;;4.35;3.10;;;;;;;23.14;49.02;101745.25;5012662;28;20220;-81
2023/06/24 08:20:02;;;;;;;3.45;2.83;;;;;;;23.25;49.49;101736.91;5015757;28;20233;-81
2023/06/24 08:22:30;;;;;;;3.50;2.88;;;;;;;23.38;49.31;101731.94;5020702;28;20206;-80
2023/06/24 08:24:56;;;;;;;4.03;2.55;;;;;;;23.50;46.75;101741.56;5014021;28;20210;-81
2023/06/24 08:27:23;;;;;;;3.58;2.60;;;;;;;23.55;46.21;101743.88;5016164;28;20202;-81
2023/06/24 08:29:49;;;;;;;2.97;2.50;;;;;;;23.66;45.92;101732.75;5009846;28;20267;-80
2023/06/24 08:32:16;;;;;;;3.15;2.25;;;;;;;23.77;45.02;101734.41;5005876;28;20218;-80
2023/06/24 08:34:42;;;;;;;2.35;2.00;;;;;;;23.87;43.51;101746.03;5006028;28;20208;-84
2023/06/24 08:37:09;;;;;;;2.63;2.17;;;;;;;23.94;43.01;101744.41;5006887;28;20743;-82
2023/06/24 08:39:38;;;;;;;2.53;2.13;;;;;;;24.00;42.91;101732.91;5007080;28;20234;-82
2023/06/24 08:42:05;;;;;;;3.33;2.60;;;;;;;24.17;43.92;101737.44;5006002;28;20210;-82
2023/06/24 08:44:31;;;;;;;2.65;2.40;;;;;;;24.34;44.62;101741.16;5009670;28;20219;-81
2023/06/24 08:46:58;;;;;;;2.65;2.45;;;;;;;24.49;45.04;101736.81;5011773;28;20298;-82
2023/06/24 08:49:30;;;;;;;5.45;3.05;;;;;;;24.61;45.73;101728.38;5010636;28;20314;-83
2023/06/24 08:52:01;;;;;;;3.40;3.10;;;;;;;24.75;45.94;101738.66;5010102;28;20199;-83
2023/06/24 08:54:29;;;;;;;3.63;3.00;;;;;;;24.84;46.65;101741.25;5013836;28;20214;-82
2023/06/24 08:56:57;;;;;;;5.05;3.22;;;;;;;24.92;46.46;101735.81;5006974;28;20211;-82
2023/06/24 08:59:30;;;;;;;5.57;3.40;;;;;;;25.00;46.85;101734.19;5008623;28;20705;-82
2023/06/24 09:01:56;;;;;;;4.00;3.15;;;;;;;25.09;46.64;101738.66;5009382;28;20211;-83
2023/06/24 09:04:23;;;;;;;4.88;3.25;;;;;;;25.15;46.54;101738.00;5002288;28;20210;-83
2023/06/24 09:06:49;;;;;;;5.93;3.55;;;;;;;25.28;47.02;101730.19;5008208;28;20203;-82
2023/06/24 09:09:20;;;;;;;3.33;3.00;;;;;;;25.41;47.38;101730.56;5010202;28;20234;-83
2023/06/24 09:11:52;;;;;;;4.05;3.55;;;;;;;25.51;47.18;101731.25;5001675;28;20285;-82
2023/06/24 09:14:20;;;;;;;4.85;3.03;;;;;;;25.58;47.67;101726.84;5007479;28;20599;-82
2023/06/24 09:16:52;;;;;;;4.25;3.42;;;;;;;25.70;47.80;101726.53;5005789;28;20211;-79
2023/06/24 09:19:21;;;;;;;3.90;3.50;;;;;;;25.79;47.81;101722.81;5004484;28;20246;-80
2023/06/24 09:21:48;;;;;;;3.50;3.20;;;;;;;25.83;47.60;101718.69;5008904;28;20248;-80
2023/06/24 09:24:14;;;;;;;4.28;2.88;;;;;;;25.91;47.34;101721.44;5003193;28;20210;-79
2023/06/24 09:26:44;;;;;;;5.68;3.50;;;;;;;25.91;46.85;101716.81;5005956;28;20199;-80
2023/06/24 09:29:11;;;;;;;3.63;3.33;;;;;;;25.94;47.38;101710.16;5001955;28;20231;-80
2023/06/24 09:31:47;;;;;;;4.57;3.20;;;;;;;26.01;47.76;101707.59;5002212;28;20222;-80
2023/06/24 09:34:14;;;;;;;4.50;3.10;;;;;;;26.01;46.78;101710.31;5005233;28;20206;-80
2023/06/24 09:36:43;;;;;;;4.90;3.63;;;;;;;26.01;46.81;101707.59;5003847;28;20203;-79
2023/06/24 09:39:10;;;;;;;3.53;3.17;;;;;;;26.01;47.02;101707.59;5013295;28;20214;-79
2023/06/24 09:41:37;;;;;;;3.33;3.03;;;;;;;26.07;47.68;101713.22;5008432;28;20270;-80
2023/06/24 09:44:08;;;;;;;3.65;2.80;;;;;;;26.16;47.19;101703.97;5004209;28;20237;-79
2023/06/24 09:46:36;;;;;;;3.60;2.50;;;;;;;26.23;46.88;101698.69;5011786;28;20235;-80
2023/06/24 09:49:04;;;;;;;5.00;2.88;;;;;;;26.28;46.18;101697.16;5005453;28;20294;-79
2023/06/24 09:51:33;;;;;;;2.97;2.45;;;;;;;26.41;46.41;101695.78;5016267;28;20230;-80
2023/06/24 09:53:59;;;;;;;5.07;2.97;;;;;;;26.46;46.20;101691.50;5012518;28;20214;-79
2023/06/24 09:56:26;;;;;;;3.33;3.03;;;;;;;26.53;46.29;101689.75;5004595;28;20206;-79
2023/06/24 09:58:53;;;;;;;4.15;3.15;;;;;;;26.59;46.21;101691.78;5010725;28;20235;-80
2023/06/24 10:01:20;;;;;;;3.10;2.65;;;;;;;26.67;46.14;101695.53;5007604;28;20223;-80
2023/06/24 10:03:46;;;;;;;3.00;2.80;;;;;;;26.71;46.58;101686.78;5004646;28;20211;-80
2023/06/24 10:06:14;;;;;;;3.33;3.03;;;;;;;26.78;45.91;101681.47;5000224;28;20222;-79
2023/06/24 10:08:43;;;;;;;3.17;2.88;;;;;;;26.81;45.94;101681.97;5000371;28;20209;-79
2023/06/24 10:11:17;;;;;;;3.53;2.80;;;;;;;26.87;45.99;101685.88;5003248;28;21632;-80
2023/06/24 10:13:43;;;;;;;3.25;2.95;;;;;;;26.93;45.37;101691.47;5007377;28;20203;-79
2023/06/24 10:16:10;;;;;;;4.38;3.58;;;;;;;27.03;45.16;101690.44;5004289;28;20698;-79
2023/06/24 10:18:37;;;;;;;5.13;3.00;;;;;;;27.07;44.17;101684.41;5010574;28;20202;-80
2023/06/24 10:21:04;;;;;;;3.17;2.90;;;;;;;27.16;44.41;101682.50;5013994;28;20386;-79
2023/06/24 10:23:34;;;;;;;3.60;2.97;;;;;;;27.22;44.19;101677.16;5011298;28;20214;-80
2023/06/24 10:26:01;;;;;;;3.08;2.88;;;;;;;27.30;44.09;101671.63;5013204;28;20333;-79
2023/06/24 10:28:28;;;;;;;3.58;2.88;;;;;;;27.38;44.25;101676.19;5009876;28;20213;-79
2023/06/24 10:30:57;;;;;;;3.50;3.20;;;;;;;27.47;44.93;101671.50;5008024;28;20231;-79
2023/06/24 10:33:24;;;;;;;4.25;3.15;;;;;;;27.51;43.72;101662.75;5003033;28;20203;-78
2023/06/24 10:35:52;;;;;;;3.00;2.78;;;;;;;27.54;44.13;101669.75;5000359;28;20210;-79
2023/06/24 10:38:26;;;;;;;3.03;2.75;;;;;;;27.59;44.15;101665.41;5007544;28;20290;-79
2023/06/24 10:40:54;;;;;;;4.10;2.70;;;;;;;27.61;43.48;101660.63;5002114;28;20302;-82
2023/06/24 10:43:26;;;;;;;5.32;3.30;;;;;;;27.53;44.70;101660.69;5010433;28;20217;-82
2023/06/24 10:45:54;;;;;;;3.53;3.22;;;;;;;27.50;44.59;101652.81;5005065;28;20210;-82
2023/06/24 10:48:21;;;;;;;3.53;3.22;;;;;;;27.50;44.35;101649.25;5001822;28;20724;-82
2023/06/24 10:50:49;;;;;;;3.33;3.00;;;;;;;27.55;44.72;101646.81;5005517;28;20239;-83
2023/06/24 10:53:18;;;;;;;3.42;3.13;;;;;;;27.58;43.86;101650.06;5007969;28;20203;-82
2023/06/24 10:55:45;;;;;;;3.45;3.08;;;;;;;27.61;44.28;101640.63;5001913;28;20210;-83
2023/06/24 10:58:15;;;;;;;4.18;3.78;;;;;;;27.70;44.49;101652.34;5008633;28;20237;-82
2023/06/24 11:00:42;;;;;;;3.35;3.00;;;;;;;27.72;43.73;101642.94;5005916;28;20306;-83
2023/06/24 11:03:09;;;;;;;4.30;3.30;;;;;;;27.82;44.21;101639.91;5010656;28;20207;-82
2023/06/24 11:05:39;;;;;;;3.63;2.95;;;;;;;27.92;44.01;101633.16;5005382;28;20203;-83
2023/06/24 11:08:06;;;;;;;4.28;3.20;;;;;;;28.02;44.38;101630.13;5005889;28;20620;-82
2023/06/24 11:10:33;;;;;;;4.88;3.38;;;;;;;28.07;43.26;101632.31;5001153;28;20238;-83
2023/06/24 11:13:05;;;;;;;6.60;3.50;;;;;;;28.13;44.16;101631.53;5005799;28;20224;-82
2023/06/24 11:15:33;;;;;;;3.08;2.78;;;;;;;28.17;43.86;101638.34;5000673;28;20209;-82
2023/06/24 11:18:03;;;;;;;3.42;3.13;;;;;;;28.18;43.23;101629.94;5003358;28;20213;-82
2023/06/24 11:20:29;;;;;;;4.20;3.60;;;;;;;28.18;43.45;101627.19;5008653;28;20230;-84
2023/06/24 11:22:56;;;;;;;3.55;3.05;;;;;;;28.19;43.30;101628.94;5014318;28;20214;-84
2023/06/24 11:25:23;;;;;;;4.00;3.47;;;;;;;28.22;43.28;101625.81;5013305;28;20210;-83